YCRL weather

Crookwell Airport
New South Wales, Australia

Public forecast

Using degrees Celsius for public forecast. Weather courtesy of forecast.io.

Closest aviation weather report (METAR) to Crookwell Airport

Closest report is Canberra International Airport, 50.0 nm (92.7 km) SSW. Retrieved 2019/10/19 08:30 UTC (0 seconds ago):

YSCB 190830Z AUTO 28015KT 9999 // SCT069 12/M01 Q1017 RF000/0000

Closest aviation forecast (TAF) to Crookwell Airport

Closest forecast is Canberra International Airport, 50.0 nm (92.7 km) SSW. Retrieved 2019/10/19 06:00 UTC (2 hours ago):

TAF YSCB 190543Z 1906/2006 28020G30KT CAVOK FM190800 28014KT CAVOK FM191200 27005KT CAVOK FM191600 VRB03KT CAVOK FM200200 30010KT CAVOK